sensor_id;sensor_type;location;lat;lon;timestamp;P1;durP1;ratioP1;P2;durP2;ratioP2
64235;SDS011;50564;47.402;9.740;2023-09-07T00:03:52;10.00;;;7.38;;
64235;SDS011;50564;47.402;9.740;2023-09-07T00:08:53;9.55;;;7.72;;
64235;SDS011;50564;47.402;9.740;2023-09-07T00:13:53;9.40;;;6.85;;
64235;SDS011;50564;47.402;9.740;2023-09-07T00:18:54;7.65;;;6.85;;
64235;SDS011;50564;47.402;9.740;2023-09-07T00:23:55;10.18;;;8.15;;
64235;SDS011;50564;47.402;9.740;2023-09-07T00:28:55;9.65;;;7.65;;
64235;SDS011;50564;47.402;9.740;2023-09-07T00:33:56;9.02;;;8.02;;
64235;SDS011;50564;47.402;9.740;2023-09-07T00:38:57;11.25;;;7.93;;
64235;SDS011;50564;47.402;9.740;2023-09-07T00:43:57;10.70;;;7.30;;
64235;SDS011;50564;47.402;9.740;2023-09-07T00:48:58;8.23;;;7.32;;
64235;SDS011;50564;47.402;9.740;2023-09-07T00:54:01;11.45;;;8.27;;
64235;SDS011;50564;47.402;9.740;2023-09-07T00:59:02;8.85;;;7.85;;
64235;SDS011;50564;47.402;9.740;2023-09-07T01:04:03;9.98;;;7.68;;
64235;SDS011;50564;47.402;9.740;2023-09-07T01:09:11;9.77;;;7.05;;
64235;SDS011;50564;47.402;9.740;2023-09-07T01:14:15;10.68;;;7.70;;
64235;SDS011;50564;47.402;9.740;2023-09-07T01:19:16;8.73;;;7.65;;
64235;SDS011;50564;47.402;9.740;2023-09-07T01:24:16;8.30;;;7.15;;
64235;SDS011;50564;47.402;9.740;2023-09-07T01:29:17;9.35;;;7.55;;
64235;SDS011;50564;47.402;9.740;2023-09-07T01:34:18;10.90;;;8.30;;
64235;SDS011;50564;47.402;9.740;2023-09-07T01:39:18;8.63;;;7.53;;
64235;SDS011;50564;47.402;9.740;2023-09-07T01:44:19;8.98;;;7.63;;
64235;SDS011;50564;47.402;9.740;2023-09-07T01:49:20;9.35;;;6.95;;
64235;SDS011;50564;47.402;9.740;2023-09-07T01:54:21;10.00;;;8.15;;
64235;SDS011;50564;47.402;9.740;2023-09-07T01:59:22;8.70;;;7.78;;
64235;SDS011;50564;47.402;9.740;2023-09-07T02:04:23;9.27;;;7.47;;
64235;SDS011;50564;47.402;9.740;2023-09-07T02:09:23;11.88;;;8.00;;
64235;SDS011;50564;47.402;9.740;2023-09-07T02:14:24;9.15;;;8.00;;
64235;SDS011;50564;47.402;9.740;2023-09-07T02:19:24;8.75;;;7.43;;
64235;SDS011;50564;47.402;9.740;2023-09-07T02:24:25;11.43;;;7.53;;
64235;SDS011;50564;47.402;9.740;2023-09-07T02:29:26;10.23;;;7.72;;
64235;SDS011;50564;47.402;9.740;2023-09-07T02:34:27;10.88;;;8.43;;
64235;SDS011;50564;47.402;9.740;2023-09-07T02:39:28;10.88;;;7.95;;
64235;SDS011;50564;47.402;9.740;2023-09-07T02:44:29;9.80;;;8.23;;
64235;SDS011;50564;47.402;9.740;2023-09-07T02:49:30;9.45;;;8.30;;
64235;SDS011;50564;47.402;9.740;2023-09-07T02:54:31;11.38;;;8.02;;
64235;SDS011;50564;47.402;9.740;2023-09-07T02:59:32;10.50;;;8.43;;
64235;SDS011;50564;47.402;9.740;2023-09-07T03:04:32;9.43;;;7.78;;
64235;SDS011;50564;47.402;9.740;2023-09-07T03:09:33;12.90;;;8.95;;
64235;SDS011;50564;47.402;9.740;2023-09-07T03:14:34;10.85;;;8.70;;
64235;SDS011;50564;47.402;9.740;2023-09-07T03:19:36;13.10;;;9.23;;
64235;SDS011;50564;47.402;9.740;2023-09-07T03:24:38;10.38;;;7.85;;
64235;SDS011;50564;47.402;9.740;2023-09-07T03:29:38;9.07;;;7.70;;
64235;SDS011;50564;47.402;9.740;2023-09-07T03:34:39;10.10;;;7.03;;
64235;SDS011;50564;47.402;9.740;2023-09-07T03:39:40;10.15;;;7.30;;
64235;SDS011;50564;47.402;9.740;2023-09-07T03:44:41;10.00;;;8.30;;
64235;SDS011;50564;47.402;9.740;2023-09-07T03:49:42;10.27;;;9.27;;
64235;SDS011;50564;47.402;9.740;2023-09-07T03:54:43;10.73;;;8.90;;
64235;SDS011;50564;47.402;9.740;2023-09-07T03:59:43;10.68;;;8.98;;
64235;SDS011;50564;47.402;9.740;2023-09-07T04:04:47;12.80;;;8.30;;
64235;SDS011;50564;47.402;9.740;2023-09-07T04:09:49;10.07;;;8.20;;
64235;SDS011;50564;47.402;9.740;2023-09-07T04:14:51;9.70;;;8.48;;
64235;SDS011;50564;47.402;9.740;2023-09-07T04:19:51;13.57;;;8.65;;
64235;SDS011;50564;47.402;9.740;2023-09-07T04:24:52;10.35;;;8.73;;
64235;SDS011;50564;47.402;9.740;2023-09-07T04:29:54;12.40;;;7.97;;
64235;SDS011;50564;47.402;9.740;2023-09-07T04:34:55;11.45;;;7.90;;
64235;SDS011;50564;47.402;9.740;2023-09-07T04:39:57;10.27;;;8.50;;
64235;SDS011;50564;47.402;9.740;2023-09-07T04:44:58;14.68;;;9.18;;
64235;SDS011;50564;47.402;9.740;2023-09-07T04:49:59;11.68;;;9.38;;
64235;SDS011;50564;47.402;9.740;2023-09-07T04:55:00;11.40;;;9.45;;
64235;SDS011;50564;47.402;9.740;2023-09-07T05:00:01;11.30;;;8.98;;
64235;SDS011;50564;47.402;9.740;2023-09-07T05:05:04;9.68;;;8.40;;
64235;SDS011;50564;47.402;9.740;2023-09-07T05:10:05;10.57;;;8.00;;
64235;SDS011;50564;47.402;9.740;2023-09-07T05:15:09;9.15;;;8.10;;
64235;SDS011;50564;47.402;9.740;2023-09-07T05:20:10;11.13;;;8.48;;
64235;SDS011;50564;47.402;9.740;2023-09-07T05:25:11;10.18;;;8.93;;
64235;SDS011;50564;47.402;9.740;2023-09-07T05:30:13;12.05;;;9.50;;
64235;SDS011;50564;47.402;9.740;2023-09-07T05:35:14;13.95;;;10.63;;
64235;SDS011;50564;47.402;9.740;2023-09-07T05:40:17;14.15;;;10.30;;
64235;SDS011;50564;47.402;9.740;2023-09-07T05:45:17;10.43;;;9.02;;
64235;SDS011;50564;47.402;9.740;2023-09-07T05:50:19;12.23;;;9.60;;
64235;SDS011;50564;47.402;9.740;2023-09-07T05:55:20;11.90;;;9.02;;
64235;SDS011;50564;47.402;9.740;2023-09-07T06:00:21;11.40;;;8.93;;
64235;SDS011;50564;47.402;9.740;2023-09-07T06:05:22;12.07;;;8.68;;
64235;SDS011;50564;47.402;9.740;2023-09-07T06:10:23;12.30;;;9.95;;
64235;SDS011;50564;47.402;9.740;2023-09-07T06:15:25;16.92;;;12.90;;
64235;SDS011;50564;47.402;9.740;2023-09-07T06:20:26;14.00;;;10.40;;
64235;SDS011;50564;47.402;9.740;2023-09-07T06:25:28;13.60;;;10.63;;
64235;SDS011;50564;47.402;9.740;2023-09-07T06:30:29;16.63;;;13.40;;
64235;SDS011;50564;47.402;9.740;2023-09-07T06:35:30;18.80;;;15.63;;
64235;SDS011;50564;47.402;9.740;2023-09-07T06:40:30;20.35;;;14.00;;
64235;SDS011;50564;47.402;9.740;2023-09-07T06:45:35;16.08;;;13.00;;
64235;SDS011;50564;47.402;9.740;2023-09-07T06:50:38;14.90;;;12.75;;
64235;SDS011;50564;47.402;9.740;2023-09-07T06:55:39;16.45;;;12.02;;
64235;SDS011;50564;47.402;9.740;2023-09-07T07:00:39;16.58;;;12.98;;
64235;SDS011;50564;47.402;9.740;2023-09-07T07:05:40;12.73;;;10.25;;
64235;SDS011;50564;47.402;9.740;2023-09-07T07:10:41;19.58;;;10.77;;
64235;SDS011;50564;47.402;9.740;2023-09-07T07:15:42;20.80;;;11.98;;
64235;SDS011;50564;47.402;9.740;2023-09-07T07:20:43;16.10;;;11.50;;
64235;SDS011;50564;47.402;9.740;2023-09-07T07:25:44;13.68;;;11.50;;
64235;SDS011;50564;47.402;9.740;2023-09-07T07:30:45;21.88;;;11.75;;
64235;SDS011;50564;47.402;9.740;2023-09-07T07:35:47;12.05;;;10.15;;
64235;SDS011;50564;47.402;9.740;2023-09-07T07:40:48;13.45;;;9.60;;
64235;SDS011;50564;47.402;9.740;2023-09-07T07:45:51;12.32;;;8.57;;
64235;SDS011;50564;47.402;9.740;2023-09-07T07:50:55;17.38;;;9.70;;
64235;SDS011;50564;47.402;9.740;2023-09-07T07:55:55;12.00;;;8.88;;
64235;SDS011;50564;47.402;9.740;2023-09-07T08:00:58;12.90;;;8.95;;
64235;SDS011;50564;47.402;9.740;2023-09-07T08:06:03;11.32;;;9.30;;
64235;SDS011;50564;47.402;9.740;2023-09-07T08:11:03;11.20;;;8.25;;
64235;SDS011;50564;47.402;9.740;2023-09-07T08:16:10;9.67;;;8.07;;
64235;SDS011;50564;47.402;9.740;2023-09-07T08:21:11;9.25;;;7.68;;
64235;SDS011;50564;47.402;9.740;2023-09-07T08:26:14;11.95;;;8.18;;
64235;SDS011;50564;47.402;9.740;2023-09-07T08:31:17;9.15;;;7.70;;
64235;SDS011;50564;47.402;9.740;2023-09-07T08:36:22;15.98;;;8.02;;
64235;SDS011;50564;47.402;9.740;2023-09-07T08:41:24;10.70;;;7.90;;
64235;SDS011;50564;47.402;9.740;2023-09-07T08:46:24;10.77;;;7.18;;
64235;SDS011;50564;47.402;9.740;2023-09-07T08:51:26;15.25;;;8.98;;
64235;SDS011;50564;47.402;9.740;2023-09-07T08:56:29;10.60;;;6.93;;
64235;SDS011;50564;47.402;9.740;2023-09-07T09:01:30;11.00;;;7.57;;
64235;SDS011;50564;47.402;9.740;2023-09-07T09:06:31;10.50;;;7.63;;
64235;SDS011;50564;47.402;9.740;2023-09-07T09:11:32;8.52;;;6.85;;
64235;SDS011;50564;47.402;9.740;2023-09-07T09:16:33;11.57;;;8.32;;
64235;SDS011;50564;47.402;9.740;2023-09-07T09:21:33;9.55;;;6.70;;
64235;SDS011;50564;47.402;9.740;2023-09-07T09:26:34;9.90;;;7.03;;
64235;SDS011;50564;47.402;9.740;2023-09-07T09:31:37;11.45;;;7.95;;
64235;SDS011;50564;47.402;9.740;2023-09-07T09:36:38;10.20;;;7.88;;
64235;SDS011;50564;47.402;9.740;2023-09-07T09:41:41;13.35;;;8.35;;
64235;SDS011;50564;47.402;9.740;2023-09-07T09:46:42;11.40;;;7.43;;
64235;SDS011;50564;47.402;9.740;2023-09-07T09:51:43;11.18;;;7.63;;
64235;SDS011;50564;47.402;9.740;2023-09-07T09:56:45;11.13;;;7.68;;
64235;SDS011;50564;47.402;9.740;2023-09-07T10:01:46;9.65;;;7.25;;
64235;SDS011;50564;47.402;9.740;2023-09-07T10:06:53;11.95;;;6.75;;
64235;SDS011;50564;47.402;9.740;2023-09-07T10:11:57;10.40;;;7.32;;
64235;SDS011;50564;47.402;9.740;2023-09-07T10:16:59;11.52;;;7.68;;
64235;SDS011;50564;47.402;9.740;2023-09-07T10:21:59;10.98;;;7.30;;
64235;SDS011;50564;47.402;9.740;2023-09-07T10:27:00;10.80;;;6.78;;
64235;SDS011;50564;47.402;9.740;2023-09-07T10:32:07;10.02;;;8.38;;
64235;SDS011;50564;47.402;9.740;2023-09-07T10:37:10;12.18;;;7.40;;
64235;SDS011;50564;47.402;9.740;2023-09-07T10:42:22;8.27;;;6.30;;
64235;SDS011;50564;47.402;9.740;2023-09-07T10:47:24;11.70;;;7.43;;
64235;SDS011;50564;47.402;9.740;2023-09-07T10:52:24;10.60;;;7.15;;
64235;SDS011;50564;47.402;9.740;2023-09-07T10:57:25;10.73;;;7.07;;
64235;SDS011;50564;47.402;9.740;2023-09-07T11:02:26;9.10;;;7.18;;
64235;SDS011;50564;47.402;9.740;2023-09-07T11:07:27;9.05;;;6.38;;
64235;SDS011;50564;47.402;9.740;2023-09-07T11:12:28;9.07;;;6.35;;
64235;SDS011;50564;47.402;9.740;2023-09-07T11:17:29;12.55;;;6.90;;
64235;SDS011;50564;47.402;9.740;2023-09-07T11:22:30;8.10;;;6.05;;
64235;SDS011;50564;47.402;9.740;2023-09-07T11:27:34;10.30;;;7.05;;
64235;SDS011;50564;47.402;9.740;2023-09-07T11:32:36;9.40;;;6.75;;
64235;SDS011;50564;47.402;9.740;2023-09-07T11:37:37;10.07;;;6.65;;
64235;SDS011;50564;47.402;9.740;2023-09-07T11:42:38;8.43;;;5.85;;
64235;SDS011;50564;47.402;9.740;2023-09-07T11:47:39;11.10;;;6.20;;
64235;SDS011;50564;47.402;9.740;2023-09-07T11:52:40;8.07;;;6.70;;
64235;SDS011;50564;47.402;9.740;2023-09-07T11:57:40;7.53;;;5.65;;
64235;SDS011;50564;47.402;9.740;2023-09-07T12:02:41;7.70;;;5.88;;
64235;SDS011;50564;47.402;9.740;2023-09-07T12:07:42;8.18;;;6.10;;
64235;SDS011;50564;47.402;9.740;2023-09-07T12:12:45;9.07;;;5.65;;
64235;SDS011;50564;47.402;9.740;2023-09-07T12:17:46;9.25;;;6.53;;
64235;SDS011;50564;47.402;9.740;2023-09-07T12:22:48;8.35;;;5.85;;
64235;SDS011;50564;47.402;9.740;2023-09-07T12:27:49;8.30;;;6.10;;
64235;SDS011;50564;47.402;9.740;2023-09-07T12:32:51;11.27;;;6.13;;
64235;SDS011;50564;47.402;9.740;2023-09-07T12:37:52;7.93;;;5.43;;
64235;SDS011;50564;47.402;9.740;2023-09-07T12:42:53;12.88;;;5.72;;
64235;SDS011;50564;47.402;9.740;2023-09-07T12:47:53;8.02;;;5.55;;
64235;SDS011;50564;47.402;9.740;2023-09-07T12:52:54;7.78;;;6.03;;
64235;SDS011;50564;47.402;9.740;2023-09-07T12:57:55;9.43;;;5.88;;
64235;SDS011;50564;47.402;9.740;2023-09-07T13:02:55;8.80;;;5.35;;
64235;SDS011;50564;47.402;9.740;2023-09-07T13:07:56;8.82;;;5.50;;
64235;SDS011;50564;47.402;9.740;2023-09-07T13:12:59;7.53;;;5.72;;
64235;SDS011;50564;47.402;9.740;2023-09-07T13:17:59;9.25;;;6.40;;
64235;SDS011;50564;47.402;9.740;2023-09-07T13:23:00;9.30;;;6.20;;
64235;SDS011;50564;47.402;9.740;2023-09-07T13:28:01;8.23;;;7.20;;
64235;SDS011;50564;47.402;9.740;2023-09-07T13:33:02;11.73;;;6.78;;
64235;SDS011;50564;47.402;9.740;2023-09-07T13:38:03;11.55;;;6.82;;
64235;SDS011;50564;47.402;9.740;2023-09-07T13:43:03;8.73;;;6.25;;
64235;SDS011;50564;47.402;9.740;2023-09-07T13:48:04;9.80;;;6.28;;
64235;SDS011;50564;47.402;9.740;2023-09-07T13:53:05;9.82;;;6.40;;
64235;SDS011;50564;47.402;9.740;2023-09-07T13:58:06;9.18;;;6.97;;
64235;SDS011;50564;47.402;9.740;2023-09-07T14:03:06;9.00;;;6.88;;
64235;SDS011;50564;47.402;9.740;2023-09-07T14:08:07;8.73;;;6.85;;
64235;SDS011;50564;47.402;9.740;2023-09-07T14:13:07;11.77;;;6.80;;
64235;SDS011;50564;47.402;9.740;2023-09-07T14:18:08;8.10;;;6.38;;
64235;SDS011;50564;47.402;9.740;2023-09-07T14:23:09;8.65;;;6.85;;
64235;SDS011;50564;47.402;9.740;2023-09-07T14:28:09;9.07;;;7.15;;
64235;SDS011;50564;47.402;9.740;2023-09-07T14:33:10;10.48;;;6.93;;
64235;SDS011;50564;47.402;9.740;2023-09-07T14:38:11;9.48;;;6.40;;
64235;SDS011;50564;47.402;9.740;2023-09-07T14:43:11;11.82;;;7.47;;
64235;SDS011;50564;47.402;9.740;2023-09-07T14:48:12;10.68;;;6.63;;
64235;SDS011;50564;47.402;9.740;2023-09-07T14:53:13;10.38;;;6.80;;
64235;SDS011;50564;47.402;9.740;2023-09-07T14:58:14;10.43;;;7.45;;
64235;SDS011;50564;47.402;9.740;2023-09-07T15:03:15;8.70;;;6.70;;
64235;SDS011;50564;47.402;9.740;2023-09-07T15:08:16;7.47;;;6.22;;
64235;SDS011;50564;47.402;9.740;2023-09-07T15:13:17;8.10;;;6.13;;
64235;SDS011;50564;47.402;9.740;2023-09-07T15:18:19;8.05;;;6.45;;
64235;SDS011;50564;47.402;9.740;2023-09-07T15:23:20;8.10;;;6.13;;
64235;SDS011;50564;47.402;9.740;2023-09-07T15:28:22;11.80;;;6.57;;
64235;SDS011;50564;47.402;9.740;2023-09-07T15:33:23;8.93;;;7.05;;
64235;SDS011;50564;47.402;9.740;2023-09-07T15:38:25;8.15;;;6.20;;
64235;SDS011;50564;47.402;9.740;2023-09-07T15:43:27;10.43;;;7.07;;
64235;SDS011;50564;47.402;9.740;2023-09-07T15:48:30;9.77;;;6.18;;
64235;SDS011;50564;47.402;9.740;2023-09-07T15:53:33;11.77;;;7.07;;
64235;SDS011;50564;47.402;9.740;2023-09-07T15:58:35;9.05;;;6.05;;
64235;SDS011;50564;47.402;9.740;2023-09-07T16:03:36;8.02;;;6.65;;
64235;SDS011;50564;47.402;9.740;2023-09-07T16:08:38;7.45;;;5.80;;
64235;SDS011;50564;47.402;9.740;2023-09-07T16:13:40;9.07;;;6.30;;
64235;SDS011;50564;47.402;9.740;2023-09-07T16:18:42;8.45;;;6.50;;
64235;SDS011;50564;47.402;9.740;2023-09-07T16:23:44;8.70;;;6.45;;
64235;SDS011;50564;47.402;9.740;2023-09-07T16:28:46;7.28;;;5.68;;
64235;SDS011;50564;47.402;9.740;2023-09-07T16:33:49;9.70;;;6.22;;
64235;SDS011;50564;47.402;9.740;2023-09-07T16:38:53;9.43;;;6.22;;
64235;SDS011;50564;47.402;9.740;2023-09-07T16:43:56;7.90;;;5.28;;
64235;SDS011;50564;47.402;9.740;2023-09-07T16:48:59;9.23;;;6.43;;
64235;SDS011;50564;47.402;9.740;2023-09-07T16:54:00;11.32;;;6.75;;
64235;SDS011;50564;47.402;9.740;2023-09-07T16:59:03;18.05;;;9.07;;
64235;SDS011;50564;47.402;9.740;2023-09-07T17:04:05;19.80;;;11.85;;
64235;SDS011;50564;47.402;9.740;2023-09-07T17:09:07;13.88;;;11.30;;
64235;SDS011;50564;47.402;9.740;2023-09-07T17:14:09;8.95;;;6.22;;
64235;SDS011;50564;47.402;9.740;2023-09-07T17:19:10;6.70;;;5.90;;
64235;SDS011;50564;47.402;9.740;2023-09-07T17:24:12;9.20;;;6.50;;
64235;SDS011;50564;47.402;9.740;2023-09-07T17:29:15;6.95;;;6.22;;
64235;SDS011;50564;47.402;9.740;2023-09-07T17:34:22;7.68;;;5.90;;
64235;SDS011;50564;47.402;9.740;2023-09-07T17:39:25;8.15;;;6.35;;
64235;SDS011;50564;47.402;9.740;2023-09-07T17:44:26;8.38;;;7.15;;
64235;SDS011;50564;47.402;9.740;2023-09-07T17:49:28;9.57;;;6.10;;
64235;SDS011;50564;47.402;9.740;2023-09-07T17:54:33;9.30;;;6.75;;
64235;SDS011;50564;47.402;9.740;2023-09-07T17:59:35;9.93;;;6.22;;
64235;SDS011;50564;47.402;9.740;2023-09-07T18:04:37;9.48;;;6.43;;
64235;SDS011;50564;47.402;9.740;2023-09-07T18:09:39;9.43;;;6.63;;
64235;SDS011;50564;47.402;9.740;2023-09-07T18:14:43;9.88;;;7.07;;
64235;SDS011;50564;47.402;9.740;2023-09-07T18:19:49;10.80;;;7.38;;
64235;SDS011;50564;47.402;9.740;2023-09-07T18:24:51;8.35;;;7.45;;
64235;SDS011;50564;47.402;9.740;2023-09-07T18:29:55;10.80;;;7.57;;
64235;SDS011;50564;47.402;9.740;2023-09-07T18:34:57;10.18;;;8.27;;
64235;SDS011;50564;47.402;9.740;2023-09-07T18:40:02;10.07;;;7.35;;
64235;SDS011;50564;47.402;9.740;2023-09-07T18:45:07;11.63;;;6.90;;
64235;SDS011;50564;47.402;9.740;2023-09-07T18:50:10;8.20;;;7.40;;
64235;SDS011;50564;47.402;9.740;2023-09-07T18:55:18;10.10;;;6.88;;
64235;SDS011;50564;47.402;9.740;2023-09-07T19:00:21;10.25;;;8.07;;
64235;SDS011;50564;47.402;9.740;2023-09-07T19:05:23;10.32;;;8.43;;
64235;SDS011;50564;47.402;9.740;2023-09-07T19:10:27;9.32;;;8.10;;
64235;SDS011;50564;47.402;9.740;2023-09-07T19:15:31;10.88;;;8.02;;
64235;SDS011;50564;47.402;9.740;2023-09-07T19:20:33;10.95;;;7.90;;
64235;SDS011;50564;47.402;9.740;2023-09-07T19:25:39;10.43;;;7.85;;
64235;SDS011;50564;47.402;9.740;2023-09-07T19:30:42;10.77;;;8.13;;
64235;SDS011;50564;47.402;9.740;2023-09-07T19:35:46;10.80;;;8.15;;
64235;SDS011;50564;47.402;9.740;2023-09-07T19:40:51;11.23;;;7.63;;
64235;SDS011;50564;47.402;9.740;2023-09-07T19:45:55;10.30;;;7.85;;
64235;SDS011;50564;47.402;9.740;2023-09-07T19:50:58;9.68;;;8.00;;
64235;SDS011;50564;47.402;9.740;2023-09-07T19:56:08;11.57;;;7.45;;
64235;SDS011;50564;47.402;9.740;2023-09-07T20:01:15;12.93;;;8.73;;
64235;SDS011;50564;47.402;9.740;2023-09-07T20:06:21;12.82;;;8.05;;
64235;SDS011;50564;47.402;9.740;2023-09-07T20:11:26;12.32;;;8.48;;
64235;SDS011;50564;47.402;9.740;2023-09-07T20:16:36;8.05;;;7.18;;
64235;SDS011;50564;47.402;9.740;2023-09-07T20:21:40;10.20;;;8.50;;
64235;SDS011;50564;47.402;9.740;2023-09-07T20:26:42;10.40;;;8.25;;
64235;SDS011;50564;47.402;9.740;2023-09-07T20:31:43;9.05;;;8.07;;
64235;SDS011;50564;47.402;9.740;2023-09-07T20:36:45;9.00;;;7.95;;
64235;SDS011;50564;47.402;9.740;2023-09-07T20:41:49;9.55;;;7.80;;
64235;SDS011;50564;47.402;9.740;2023-09-07T20:46:52;8.50;;;7.10;;
64235;SDS011;50564;47.402;9.740;2023-09-07T20:51:54;9.00;;;7.50;;
64235;SDS011;50564;47.402;9.740;2023-09-07T20:56:56;8.73;;;7.78;;
64235;SDS011;50564;47.402;9.740;2023-09-07T21:01:57;9.32;;;7.28;;
64235;SDS011;50564;47.402;9.740;2023-09-07T21:06:58;9.40;;;7.85;;
64235;SDS011;50564;47.402;9.740;2023-09-07T21:11:59;9.23;;;8.23;;
64235;SDS011;50564;47.402;9.740;2023-09-07T21:17:00;12.32;;;8.55;;
64235;SDS011;50564;47.402;9.740;2023-09-07T21:22:01;9.52;;;8.52;;
64235;SDS011;50564;47.402;9.740;2023-09-07T21:27:01;10.32;;;8.27;;
64235;SDS011;50564;47.402;9.740;2023-09-07T21:32:04;9.18;;;8.00;;
64235;SDS011;50564;47.402;9.740;2023-09-07T21:37:13;14.25;;;8.52;;
64235;SDS011;50564;47.402;9.740;2023-09-07T21:42:14;11.10;;;8.73;;
64235;SDS011;50564;47.402;9.740;2023-09-07T21:47:15;12.35;;;8.90;;
64235;SDS011;50564;47.402;9.740;2023-09-07T21:52:15;10.20;;;8.82;;
64235;SDS011;50564;47.402;9.740;2023-09-07T21:57:16;10.20;;;7.95;;
64235;SDS011;50564;47.402;9.740;2023-09-07T22:02:19;10.70;;;8.60;;
64235;SDS011;50564;47.402;9.740;2023-09-07T22:07:21;10.95;;;9.60;;
64235;SDS011;50564;47.402;9.740;2023-09-07T22:12:22;11.35;;;9.32;;
64235;SDS011;50564;47.402;9.740;2023-09-07T22:17:22;10.10;;;8.80;;
64235;SDS011;50564;47.402;9.740;2023-09-07T22:22:23;11.27;;;9.18;;
64235;SDS011;50564;47.402;9.740;2023-09-07T22:27:26;11.77;;;8.98;;
64235;SDS011;50564;47.402;9.740;2023-09-07T22:32:27;11.23;;;9.27;;
64235;SDS011;50564;47.402;9.740;2023-09-07T22:37:27;11.48;;;9.55;;
64235;SDS011;50564;47.402;9.740;2023-09-07T22:42:28;12.18;;;9.27;;
64235;SDS011;50564;47.402;9.740;2023-09-07T22:47:28;10.60;;;9.23;;
64235;SDS011;50564;47.402;9.740;2023-09-07T22:52:29;9.52;;;8.27;;
64235;SDS011;50564;47.402;9.740;2023-09-07T22:57:30;10.50;;;9.40;;
64235;SDS011;50564;47.402;9.740;2023-09-07T23:02:31;10.20;;;8.13;;
64235;SDS011;50564;47.402;9.740;2023-09-07T23:07:32;12.10;;;8.68;;
64235;SDS011;50564;47.402;9.740;2023-09-07T23:12:33;10.57;;;9.05;;
64235;SDS011;50564;47.402;9.740;2023-09-07T23:17:34;13.98;;;9.52;;
64235;SDS011;50564;47.402;9.740;2023-09-07T23:22:35;10.45;;;9.43;;
64235;SDS011;50564;47.402;9.740;2023-09-07T23:27:36;11.07;;;8.77;;
64235;SDS011;50564;47.402;9.740;2023-09-07T23:32:39;10.90;;;9.13;;
64235;SDS011;50564;47.402;9.740;2023-09-07T23:37:40;11.20;;;9.25;;
64235;SDS011;50564;47.402;9.740;2023-09-07T23:42:41;13.65;;;9.60;;
64235;SDS011;50564;47.402;9.740;2023-09-07T23:47:42;9.68;;;8.68;;
64235;SDS011;50564;47.402;9.740;2023-09-07T23:52:43;11.75;;;8.57;;
64235;SDS011;50564;47.402;9.740;2023-09-07T23:57:43;13.27;;;8.77;;
